sensor_id;sensor_type;location;lat;lon;timestamp;temperature;humidity
33717;DHT22;20046;50.746;7.072;2023-07-08T00:02:10;19.00;90.90
33717;DHT22;20046;50.746;7.072;2023-07-08T00:04:37;18.90;91.30
33717;DHT22;20046;50.746;7.072;2023-07-08T00:07:03;18.90;91.30
33717;DHT22;20046;50.746;7.072;2023-07-08T00:09:29;18.80;91.50
33717;DHT22;20046;50.746;7.072;2023-07-08T00:11:55;18.80;91.70
33717;DHT22;20046;50.746;7.072;2023-07-08T00:14:23;18.80;92.40
33717;DHT22;20046;50.746;7.072;2023-07-08T00:16:48;18.70;92.20
33717;DHT22;20046;50.746;7.072;2023-07-08T00:19:15;18.60;92.20
33717;DHT22;20046;50.746;7.072;2023-07-08T00:21:45;18.60;92.40
33717;DHT22;20046;50.746;7.072;2023-07-08T00:24:11;18.60;92.60
33717;DHT22;20046;50.746;7.072;2023-07-08T00:26:37;18.60;93.00
33717;DHT22;20046;50.746;7.072;2023-07-08T00:29:03;18.50;93.40
33717;DHT22;20046;50.746;7.072;2023-07-08T00:31:28;18.60;93.70
33717;DHT22;20046;50.746;7.072;2023-07-08T00:33:57;18.60;93.90
33717;DHT22;20046;50.746;7.072;2023-07-08T00:36:24;18.60;93.90
33717;DHT22;20046;50.746;7.072;2023-07-08T00:38:50;18.60;94.00
33717;DHT22;20046;50.746;7.072;2023-07-08T00:43:55;18.50;94.50
33717;DHT22;20046;50.746;7.072;2023-07-08T00:48:56;18.40;94.80
33717;DHT22;20046;50.746;7.072;2023-07-08T00:51:23;18.40;95.00
33717;DHT22;20046;50.746;7.072;2023-07-08T00:53:49;18.40;95.20
33717;DHT22;20046;50.746;7.072;2023-07-08T00:56:22;18.40;95.50
33717;DHT22;20046;50.746;7.072;2023-07-08T00:58:59;18.40;95.50
33717;DHT22;20046;50.746;7.072;2023-07-08T01:01:26;18.30;95.80
33717;DHT22;20046;50.746;7.072;2023-07-08T01:06:35;18.30;96.40
33717;DHT22;20046;50.746;7.072;2023-07-08T01:09:05;18.30;96.70
33717;DHT22;20046;50.746;7.072;2023-07-08T01:11:32;18.20;97.30
33717;DHT22;20046;50.746;7.072;2023-07-08T01:14:00;18.20;97.60
33717;DHT22;20046;50.746;7.072;2023-07-08T01:16:27;18.20;97.70
33717;DHT22;20046;50.746;7.072;2023-07-08T01:18:53;18.10;97.90
33717;DHT22;20046;50.746;7.072;2023-07-08T01:21:38;18.10;98.20
33717;DHT22;20046;50.746;7.072;2023-07-08T01:24:07;18.10;98.50
33717;DHT22;20046;50.746;7.072;2023-07-08T01:26:39;18.10;99.00
33717;DHT22;20046;50.746;7.072;2023-07-08T01:29:06;18.10;99.30
33717;DHT22;20046;50.746;7.072;2023-07-08T01:31:33;18.10;99.50
33717;DHT22;20046;50.746;7.072;2023-07-08T01:33:59;18.10;99.70
33717;DHT22;20046;50.746;7.072;2023-07-08T01:36:29;18.10;99.90
33717;DHT22;20046;50.746;7.072;2023-07-08T01:38:55;18.20;99.90
33717;DHT22;20046;50.746;7.072;2023-07-08T01:41:21;18.20;99.90
33717;DHT22;20046;50.746;7.072;2023-07-08T01:43:46;18.20;99.90
33717;DHT22;20046;50.746;7.072;2023-07-08T01:46:17;18.10;99.90
33717;DHT22;20046;50.746;7.072;2023-07-08T01:48:49;18.10;99.90
33717;DHT22;20046;50.746;7.072;2023-07-08T01:51:15;18.10;99.90
33717;DHT22;20046;50.746;7.072;2023-07-08T01:53:43;18.10;99.90
33717;DHT22;20046;50.746;7.072;2023-07-08T01:56:12;18.10;99.90
33717;DHT22;20046;50.746;7.072;2023-07-08T01:58:38;18.10;99.90
33717;DHT22;20046;50.746;7.072;2023-07-08T02:01:05;18.00;99.90
33717;DHT22;20046;50.746;7.072;2023-07-08T02:03:30;18.00;99.90
33717;DHT22;20046;50.746;7.072;2023-07-08T02:05:56;17.90;99.90
33717;DHT22;20046;50.746;7.072;2023-07-08T02:08:22;17.90;99.90
33717;DHT22;20046;50.746;7.072;2023-07-08T02:10:53;17.80;99.90
33717;DHT22;20046;50.746;7.072;2023-07-08T02:13:19;17.80;99.90
33717;DHT22;20046;50.746;7.072;2023-07-08T02:15:44;17.70;99.90
33717;DHT22;20046;50.746;7.072;2023-07-08T02:18:10;17.70;99.90
33717;DHT22;20046;50.746;7.072;2023-07-08T02:20:36;17.60;99.90
33717;DHT22;20046;50.746;7.072;2023-07-08T02:23:01;17.60;99.90
33717;DHT22;20046;50.746;7.072;2023-07-08T02:25:27;17.60;99.90
33717;DHT22;20046;50.746;7.072;2023-07-08T02:27:53;17.50;99.90
33717;DHT22;20046;50.746;7.072;2023-07-08T02:30:25;17.50;99.90
33717;DHT22;20046;50.746;7.072;2023-07-08T02:32:51;17.50;99.90
33717;DHT22;20046;50.746;7.072;2023-07-08T02:35:28;17.50;99.90
33717;DHT22;20046;50.746;7.072;2023-07-08T02:37:55;17.40;99.90
33717;DHT22;20046;50.746;7.072;2023-07-08T02:40:22;17.40;99.90
33717;DHT22;20046;50.746;7.072;2023-07-08T02:42:48;17.30;99.90
33717;DHT22;20046;50.746;7.072;2023-07-08T02:45:15;17.30;99.90
33717;DHT22;20046;50.746;7.072;2023-07-08T02:47:41;17.30;99.90
33717;DHT22;20046;50.746;7.072;2023-07-08T02:50:08;17.30;99.90
33717;DHT22;20046;50.746;7.072;2023-07-08T02:52:34;17.20;99.90
33717;DHT22;20046;50.746;7.072;2023-07-08T02:54:59;17.20;99.90
33717;DHT22;20046;50.746;7.072;2023-07-08T02:57:25;17.10;99.90
33717;DHT22;20046;50.746;7.072;2023-07-08T02:59:51;17.00;99.90
33717;DHT22;20046;50.746;7.072;2023-07-08T03:02:16;17.00;99.90
33717;DHT22;20046;50.746;7.072;2023-07-08T03:04:42;17.00;99.90
33717;DHT22;20046;50.746;7.072;2023-07-08T03:07:08;16.90;99.90
33717;DHT22;20046;50.746;7.072;2023-07-08T03:09:40;17.00;99.90
33717;DHT22;20046;50.746;7.072;2023-07-08T03:12:07;16.90;99.90
33717;DHT22;20046;50.746;7.072;2023-07-08T03:14:33;16.90;99.90
33717;DHT22;20046;50.746;7.072;2023-07-08T03:16:59;16.80;99.90
33717;DHT22;20046;50.746;7.072;2023-07-08T03:19:25;16.80;99.90
33717;DHT22;20046;50.746;7.072;2023-07-08T03:21:51;16.80;99.90
33717;DHT22;20046;50.746;7.072;2023-07-08T03:24:17;16.80;99.90
33717;DHT22;20046;50.746;7.072;2023-07-08T03:26:44;16.80;99.90
33717;DHT22;20046;50.746;7.072;2023-07-08T03:29:17;16.70;99.90
33717;DHT22;20046;50.746;7.072;2023-07-08T03:31:44;16.70;99.90
33717;DHT22;20046;50.746;7.072;2023-07-08T03:34:11;16.70;99.90
33717;DHT22;20046;50.746;7.072;2023-07-08T03:36:43;16.60;99.90
33717;DHT22;20046;50.746;7.072;2023-07-08T03:39:17;16.60;99.90
33717;DHT22;20046;50.746;7.072;2023-07-08T03:41:44;16.60;99.90
33717;DHT22;20046;50.746;7.072;2023-07-08T03:44:10;16.60;99.90
33717;DHT22;20046;50.746;7.072;2023-07-08T03:46:35;16.60;99.90
33717;DHT22;20046;50.746;7.072;2023-07-08T03:49:01;16.60;99.90
33717;DHT22;20046;50.746;7.072;2023-07-08T03:51:29;16.70;99.90
33717;DHT22;20046;50.746;7.072;2023-07-08T03:53:56;16.70;99.90
33717;DHT22;20046;50.746;7.072;2023-07-08T03:56:21;16.70;99.90
33717;DHT22;20046;50.746;7.072;2023-07-08T03:58:47;16.80;99.90
33717;DHT22;20046;50.746;7.072;2023-07-08T04:01:17;16.80;99.90
33717;DHT22;20046;50.746;7.072;2023-07-08T04:03:44;16.90;99.90
33717;DHT22;20046;50.746;7.072;2023-07-08T04:06:10;16.90;99.90
33717;DHT22;20046;50.746;7.072;2023-07-08T04:08:35;17.00;99.90
33717;DHT22;20046;50.746;7.072;2023-07-08T04:11:01;17.10;99.90
33717;DHT22;20046;50.746;7.072;2023-07-08T04:13:27;17.30;99.90
33717;DHT22;20046;50.746;7.072;2023-07-08T04:15:59;17.30;99.90
33717;DHT22;20046;50.746;7.072;2023-07-08T04:18:25;17.40;99.90
33717;DHT22;20046;50.746;7.072;2023-07-08T04:20:50;17.50;99.90
33717;DHT22;20046;50.746;7.072;2023-07-08T04:23:22;17.60;99.90
33717;DHT22;20046;50.746;7.072;2023-07-08T04:25:49;17.60;99.90
33717;DHT22;20046;50.746;7.072;2023-07-08T04:28:16;17.70;99.90
33717;DHT22;20046;50.746;7.072;2023-07-08T04:30:43;17.80;99.90
33717;DHT22;20046;50.746;7.072;2023-07-08T04:33:13;17.90;99.90
33717;DHT22;20046;50.746;7.072;2023-07-08T04:35:40;18.00;99.90
33717;DHT22;20046;50.746;7.072;2023-07-08T04:38:08;18.10;99.90
33717;DHT22;20046;50.746;7.072;2023-07-08T04:40:37;18.10;99.90
33717;DHT22;20046;50.746;7.072;2023-07-08T04:43:09;18.20;99.90
33717;DHT22;20046;50.746;7.072;2023-07-08T04:45:42;18.20;99.90
33717;DHT22;20046;50.746;7.072;2023-07-08T04:48:13;18.20;99.90
33717;DHT22;20046;50.746;7.072;2023-07-08T04:50:44;18.30;99.90
33717;DHT22;20046;50.746;7.072;2023-07-08T04:53:10;18.40;99.90
33717;DHT22;20046;50.746;7.072;2023-07-08T04:55:44;18.50;99.90
33717;DHT22;20046;50.746;7.072;2023-07-08T04:58:10;18.70;99.90
33717;DHT22;20046;50.746;7.072;2023-07-08T05:00:36;18.80;99.90
33717;DHT22;20046;50.746;7.072;2023-07-08T05:03:02;18.90;99.90
33717;DHT22;20046;50.746;7.072;2023-07-08T05:05:27;18.90;99.90
33717;DHT22;20046;50.746;7.072;2023-07-08T05:07:53;19.00;99.90
33717;DHT22;20046;50.746;7.072;2023-07-08T05:10:20;19.20;99.90
33717;DHT22;20046;50.746;7.072;2023-07-08T05:12:46;19.30;99.90
33717;DHT22;20046;50.746;7.072;2023-07-08T05:15:12;19.50;99.90
33717;DHT22;20046;50.746;7.072;2023-07-08T05:17:39;19.70;99.90
33717;DHT22;20046;50.746;7.072;2023-07-08T05:20:07;19.80;99.90
33717;DHT22;20046;50.746;7.072;2023-07-08T05:22:33;20.00;99.90
33717;DHT22;20046;50.746;7.072;2023-07-08T05:24:59;20.10;99.90
33717;DHT22;20046;50.746;7.072;2023-07-08T05:27:25;20.10;99.90
33717;DHT22;20046;50.746;7.072;2023-07-08T05:29:50;20.10;99.90
33717;DHT22;20046;50.746;7.072;2023-07-08T05:32:17;20.20;99.90
33717;DHT22;20046;50.746;7.072;2023-07-08T05:34:43;20.20;99.90
33717;DHT22;20046;50.746;7.072;2023-07-08T05:37:10;20.30;99.90
33717;DHT22;20046;50.746;7.072;2023-07-08T05:39:37;20.40;99.90
33717;DHT22;20046;50.746;7.072;2023-07-08T05:42:02;20.50;99.90
33717;DHT22;20046;50.746;7.072;2023-07-08T05:44:28;20.50;99.90
33717;DHT22;20046;50.746;7.072;2023-07-08T05:46:54;20.70;99.90
33717;DHT22;20046;50.746;7.072;2023-07-08T05:49:20;20.70;99.90
33717;DHT22;20046;50.746;7.072;2023-07-08T05:51:45;20.70;99.90
33717;DHT22;20046;50.746;7.072;2023-07-08T05:54:11;20.90;99.90
33717;DHT22;20046;50.746;7.072;2023-07-08T05:56:37;21.10;99.90
33717;DHT22;20046;50.746;7.072;2023-07-08T05:59:03;21.50;99.90
33717;DHT22;20046;50.746;7.072;2023-07-08T06:01:30;21.80;99.90
33717;DHT22;20046;50.746;7.072;2023-07-08T06:03:56;22.10;99.90
33717;DHT22;20046;50.746;7.072;2023-07-08T06:06:27;22.40;99.60
33717;DHT22;20046;50.746;7.072;2023-07-08T06:08:54;22.70;99.20
33717;DHT22;20046;50.746;7.072;2023-07-08T06:11:20;22.90;98.20
33717;DHT22;20046;50.746;7.072;2023-07-08T06:13:47;23.20;97.70
33717;DHT22;20046;50.746;7.072;2023-07-08T06:16:13;23.40;97.00
33717;DHT22;20046;50.746;7.072;2023-07-08T06:18:38;23.60;96.60
33717;DHT22;20046;50.746;7.072;2023-07-08T06:21:05;23.80;96.30
33717;DHT22;20046;50.746;7.072;2023-07-08T06:23:30;24.00;96.30
33717;DHT22;20046;50.746;7.072;2023-07-08T06:25:56;24.20;95.60
33717;DHT22;20046;50.746;7.072;2023-07-08T06:28:22;24.40;95.10
33717;DHT22;20046;50.746;7.072;2023-07-08T06:30:49;24.40;94.40
33717;DHT22;20046;50.746;7.072;2023-07-08T06:33:15;24.50;94.00
33717;DHT22;20046;50.746;7.072;2023-07-08T06:35:41;24.80;93.80
33717;DHT22;20046;50.746;7.072;2023-07-08T06:38:07;25.00;93.70
33717;DHT22;20046;50.746;7.072;2023-07-08T06:40:33;25.00;93.00
33717;DHT22;20046;50.746;7.072;2023-07-08T06:42:59;24.90;92.40
33717;DHT22;20046;50.746;7.072;2023-07-08T06:45:25;25.00;92.00
33717;DHT22;20046;50.746;7.072;2023-07-08T06:47:51;25.30;92.00
33717;DHT22;20046;50.746;7.072;2023-07-08T06:50:16;25.70;91.50
33717;DHT22;20046;50.746;7.072;2023-07-08T06:52:42;25.90;90.70
33717;DHT22;20046;50.746;7.072;2023-07-08T06:55:09;25.90;90.00
33717;DHT22;20046;50.746;7.072;2023-07-08T06:57:35;25.70;90.00
33717;DHT22;20046;50.746;7.072;2023-07-08T07:00:05;25.80;90.30
33717;DHT22;20046;50.746;7.072;2023-07-08T07:02:31;25.50;89.80
33717;DHT22;20046;50.746;7.072;2023-07-08T07:04:56;25.30;90.30
33717;DHT22;20046;50.746;7.072;2023-07-08T07:07:22;25.10;90.20
33717;DHT22;20046;50.746;7.072;2023-07-08T07:09:47;25.00;90.20
33717;DHT22;20046;50.746;7.072;2023-07-08T07:12:13;25.00;90.00
33717;DHT22;20046;50.746;7.072;2023-07-08T07:14:39;24.90;90.40
33717;DHT22;20046;50.746;7.072;2023-07-08T07:17:04;24.90;90.40
33717;DHT22;20046;50.746;7.072;2023-07-08T07:19:30;24.90;90.40
33717;DHT22;20046;50.746;7.072;2023-07-08T07:21:56;25.00;90.80
33717;DHT22;20046;50.746;7.072;2023-07-08T07:24:21;25.20;90.40
33717;DHT22;20046;50.746;7.072;2023-07-08T07:26:47;25.50;90.60
33717;DHT22;20046;50.746;7.072;2023-07-08T07:29:16;26.10;90.10
33717;DHT22;20046;50.746;7.072;2023-07-08T07:31:42;26.40;88.90
33717;DHT22;20046;50.746;7.072;2023-07-08T07:34:09;26.80;86.90
33717;DHT22;20046;50.746;7.072;2023-07-08T07:36:34;26.80;86.70
33717;DHT22;20046;50.746;7.072;2023-07-08T07:39:00;27.10;85.90
33717;DHT22;20046;50.746;7.072;2023-07-08T07:41:25;27.60;84.60
33717;DHT22;20046;50.746;7.072;2023-07-08T07:43:51;28.00;80.70
33717;DHT22;20046;50.746;7.072;2023-07-08T07:46:17;28.20;79.60
33717;DHT22;20046;50.746;7.072;2023-07-08T07:48:42;28.50;79.00
33717;DHT22;20046;50.746;7.072;2023-07-08T07:51:08;28.90;78.40
33717;DHT22;20046;50.746;7.072;2023-07-08T07:53:37;29.50;77.30
33717;DHT22;20046;50.746;7.072;2023-07-08T07:56:03;29.90;75.90
33717;DHT22;20046;50.746;7.072;2023-07-08T07:58:30;30.20;74.70
33717;DHT22;20046;50.746;7.072;2023-07-08T08:00:56;30.40;72.20
33717;DHT22;20046;50.746;7.072;2023-07-08T08:03:22;30.50;72.10
33717;DHT22;20046;50.746;7.072;2023-07-08T08:05:48;30.80;70.70
33717;DHT22;20046;50.746;7.072;2023-07-08T08:08:14;31.00;70.10
33717;DHT22;20046;50.746;7.072;2023-07-08T08:10:42;31.10;69.20
33717;DHT22;20046;50.746;7.072;2023-07-08T08:13:07;30.90;68.20
33717;DHT22;20046;50.746;7.072;2023-07-08T08:15:34;30.70;68.20
33717;DHT22;20046;50.746;7.072;2023-07-08T08:17:59;30.50;67.20
33717;DHT22;20046;50.746;7.072;2023-07-08T08:20:25;30.70;67.40
33717;DHT22;20046;50.746;7.072;2023-07-08T08:22:51;31.00;67.50
33717;DHT22;20046;50.746;7.072;2023-07-08T08:25:18;31.30;67.00
33717;DHT22;20046;50.746;7.072;2023-07-08T08:27:44;31.40;65.10
33717;DHT22;20046;50.746;7.072;2023-07-08T08:30:11;31.80;65.10
33717;DHT22;20046;50.746;7.072;2023-07-08T08:32:37;32.20;64.60
33717;DHT22;20046;50.746;7.072;2023-07-08T08:35:03;32.50;63.80
33717;DHT22;20046;50.746;7.072;2023-07-08T08:37:29;32.90;63.30
33717;DHT22;20046;50.746;7.072;2023-07-08T08:39:54;33.50;63.40
33717;DHT22;20046;50.746;7.072;2023-07-08T08:43:12;33.90;61.10
33717;DHT22;20046;50.746;7.072;2023-07-08T08:45:19;33.80;59.60
33717;DHT22;20046;50.746;7.072;2023-07-08T08:47:50;34.20;59.60
33717;DHT22;20046;50.746;7.072;2023-07-08T08:52:50;33.80;59.00
33717;DHT22;20046;50.746;7.072;2023-07-08T08:55:17;34.40;59.60
33717;DHT22;20046;50.746;7.072;2023-07-08T08:57:48;34.60;58.20
33717;DHT22;20046;50.746;7.072;2023-07-08T09:00:19;34.30;57.70
33717;DHT22;20046;50.746;7.072;2023-07-08T09:02:59;34.40;57.50
33717;DHT22;20046;50.746;7.072;2023-07-08T09:05:26;34.90;57.20
33717;DHT22;20046;50.746;7.072;2023-07-08T09:10:56;35.30;57.10
33717;DHT22;20046;50.746;7.072;2023-07-08T09:13:33;35.70;56.20
33717;DHT22;20046;50.746;7.072;2023-07-08T09:18:32;36.00;55.50
33717;DHT22;20046;50.746;7.072;2023-07-08T09:21:00;36.00;54.90
33717;DHT22;20046;50.746;7.072;2023-07-08T09:23:35;36.40;54.80
33717;DHT22;20046;50.746;7.072;2023-07-08T09:26:16;36.10;54.80
33717;DHT22;20046;50.746;7.072;2023-07-08T09:28:44;36.40;54.60
33717;DHT22;20046;50.746;7.072;2023-07-08T09:31:31;36.60;54.10
33717;DHT22;20046;50.746;7.072;2023-07-08T09:34:12;36.90;53.90
33717;DHT22;20046;50.746;7.072;2023-07-08T09:36:41;37.10;53.80
33717;DHT22;20046;50.746;7.072;2023-07-08T09:39:11;36.90;53.20
33717;DHT22;20046;50.746;7.072;2023-07-08T09:41:38;36.80;52.60
33717;DHT22;20046;50.746;7.072;2023-07-08T09:46:38;36.80;52.40
33717;DHT22;20046;50.746;7.072;2023-07-08T09:49:28;37.10;52.50
33717;DHT22;20046;50.746;7.072;2023-07-08T09:51:54;37.00;52.60
33717;DHT22;20046;50.746;7.072;2023-07-08T09:54:23;36.80;52.70
33717;DHT22;20046;50.746;7.072;2023-07-08T09:56:58;36.70;51.90
33717;DHT22;20046;50.746;7.072;2023-07-08T09:59:30;37.10;52.30
33717;DHT22;20046;50.746;7.072;2023-07-08T10:01:59;37.20;52.10
33717;DHT22;20046;50.746;7.072;2023-07-08T10:04:25;37.60;51.50
33717;DHT22;20046;50.746;7.072;2023-07-08T10:06:54;38.00;51.40
33717;DHT22;20046;50.746;7.072;2023-07-08T10:09:23;38.00;50.80
33717;DHT22;20046;50.746;7.072;2023-07-08T10:12:00;38.20;50.40
33717;DHT22;20046;50.746;7.072;2023-07-08T10:14:33;38.20;50.60
33717;DHT22;20046;50.746;7.072;2023-07-08T10:17:00;37.60;50.90
33717;DHT22;20046;50.746;7.072;2023-07-08T10:19:26;37.40;51.70
33717;DHT22;20046;50.746;7.072;2023-07-08T10:24:52;37.50;51.10
33717;DHT22;20046;50.746;7.072;2023-07-08T10:30:03;37.70;51.10
33717;DHT22;20046;50.746;7.072;2023-07-08T10:35:20;38.10;50.50
33717;DHT22;20046;50.746;7.072;2023-07-08T10:38:18;38.30;50.10
33717;DHT22;20046;50.746;7.072;2023-07-08T10:40:49;38.40;49.80
33717;DHT22;20046;50.746;7.072;2023-07-08T10:54:53;40.30;48.40
33717;DHT22;20046;50.746;7.072;2023-07-08T11:03:27;39.70;47.40
33717;DHT22;20046;50.746;7.072;2023-07-08T11:08:40;40.10;46.70
33717;DHT22;20046;50.746;7.072;2023-07-08T11:11:18;40.50;46.80
33717;DHT22;20046;50.746;7.072;2023-07-08T11:13:55;40.10;46.20
33717;DHT22;20046;50.746;7.072;2023-07-08T11:16:33;39.90;46.90
33717;DHT22;20046;50.746;7.072;2023-07-08T11:19:13;40.10;46.90
33717;DHT22;20046;50.746;7.072;2023-07-08T11:21:47;40.30;46.30
33717;DHT22;20046;50.746;7.072;2023-07-08T11:26:55;41.00;45.70
33717;DHT22;20046;50.746;7.072;2023-07-08T11:29:42;40.80;45.00
33717;DHT22;20046;50.746;7.072;2023-07-08T11:32:14;41.00;45.00
33717;DHT22;20046;50.746;7.072;2023-07-08T11:34:43;41.70;45.70
33717;DHT22;20046;50.746;7.072;2023-07-08T11:37:10;42.20;43.90
33717;DHT22;20046;50.746;7.072;2023-07-08T11:39:45;42.20;43.70
33717;DHT22;20046;50.746;7.072;2023-07-08T11:42:21;42.70;45.10
33717;DHT22;20046;50.746;7.072;2023-07-08T11:44:56;42.00;44.50
33717;DHT22;20046;50.746;7.072;2023-07-08T11:47:32;42.30;43.80
33717;DHT22;20046;50.746;7.072;2023-07-08T11:50:00;42.70;43.60
33717;DHT22;20046;50.746;7.072;2023-07-08T11:52:29;42.60;43.80
33717;DHT22;20046;50.746;7.072;2023-07-08T11:54:59;43.00;43.60
33717;DHT22;20046;50.746;7.072;2023-07-08T11:57:37;43.10;43.20
33717;DHT22;20046;50.746;7.072;2023-07-08T12:00:15;43.00;42.50
33717;DHT22;20046;50.746;7.072;2023-07-08T12:02:58;43.10;42.00
33717;DHT22;20046;50.746;7.072;2023-07-08T12:05:36;43.80;41.80
33717;DHT22;20046;50.746;7.072;2023-07-08T12:08:15;42.90;41.80
33717;DHT22;20046;50.746;7.072;2023-07-08T12:10:51;42.80;42.20
33717;DHT22;20046;50.746;7.072;2023-07-08T12:13:23;43.30;41.20
33717;DHT22;20046;50.746;7.072;2023-07-08T12:15:49;43.30;42.50
33717;DHT22;20046;50.746;7.072;2023-07-08T12:18:21;43.50;41.20
33717;DHT22;20046;50.746;7.072;2023-07-08T12:21:01;43.30;41.00
33717;DHT22;20046;50.746;7.072;2023-07-08T12:23:28;43.20;41.10
33717;DHT22;20046;50.746;7.072;2023-07-08T12:25:55;43.50;41.50
33717;DHT22;20046;50.746;7.072;2023-07-08T12:28:21;44.10;41.30
33717;DHT22;20046;50.746;7.072;2023-07-08T12:30:48;44.10;40.30
33717;DHT22;20046;50.746;7.072;2023-07-08T12:33:27;44.80;40.00
33717;DHT22;20046;50.746;7.072;2023-07-08T12:35:54;45.30;39.70
33717;DHT22;20046;50.746;7.072;2023-07-08T12:38:26;45.40;38.70
33717;DHT22;20046;50.746;7.072;2023-07-08T12:40:54;44.80;38.90
33717;DHT22;20046;50.746;7.072;2023-07-08T12:43:20;45.40;39.10
33717;DHT22;20046;50.746;7.072;2023-07-08T12:45:46;46.10;38.50
33717;DHT22;20046;50.746;7.072;2023-07-08T12:48:12;46.50;39.70
33717;DHT22;20046;50.746;7.072;2023-07-08T12:50:37;47.30;38.20
33717;DHT22;20046;50.746;7.072;2023-07-08T12:53:05;47.50;37.30
33717;DHT22;20046;50.746;7.072;2023-07-08T12:55:37;47.60;36.70
33717;DHT22;20046;50.746;7.072;2023-07-08T12:58:04;47.90;37.10
33717;DHT22;20046;50.746;7.072;2023-07-08T13:00:32;48.00;36.60
33717;DHT22;20046;50.746;7.072;2023-07-08T13:03:14;48.60;36.70
33717;DHT22;20046;50.746;7.072;2023-07-08T13:05:41;48.50;35.90
33717;DHT22;20046;50.746;7.072;2023-07-08T13:08:12;47.50;35.90
33717;DHT22;20046;50.746;7.072;2023-07-08T13:10:38;47.00;36.60
33717;DHT22;20046;50.746;7.072;2023-07-08T13:13:08;46.70;36.40
33717;DHT22;20046;50.746;7.072;2023-07-08T13:15:38;45.50;38.50
33717;DHT22;20046;50.746;7.072;2023-07-08T13:18:08;42.80;39.50
33717;DHT22;20046;50.746;7.072;2023-07-08T13:20:35;40.80;41.80
33717;DHT22;20046;50.746;7.072;2023-07-08T13:23:02;38.90;43.70
33717;DHT22;20046;50.746;7.072;2023-07-08T13:25:32;38.00;44.40
33717;DHT22;20046;50.746;7.072;2023-07-08T13:28:25;37.70;45.20
33717;DHT22;20046;50.746;7.072;2023-07-08T13:30:52;37.50;45.30
33717;DHT22;20046;50.746;7.072;2023-07-08T13:33:18;37.20;45.40
33717;DHT22;20046;50.746;7.072;2023-07-08T13:35:45;37.10;45.80
33717;DHT22;20046;50.746;7.072;2023-07-08T13:38:16;37.20;46.10
33717;DHT22;20046;50.746;7.072;2023-07-08T13:40:46;37.00;45.70
33717;DHT22;20046;50.746;7.072;2023-07-08T13:43:12;36.90;46.40
33717;DHT22;20046;50.746;7.072;2023-07-08T13:45:44;36.70;46.60
33717;DHT22;20046;50.746;7.072;2023-07-08T13:48:42;36.70;47.00
33717;DHT22;20046;50.746;7.072;2023-07-08T13:51:16;36.40;46.60
33717;DHT22;20046;50.746;7.072;2023-07-08T13:56:33;36.80;46.40
33717;DHT22;20046;50.746;7.072;2023-07-08T13:59:02;36.60;46.70
33717;DHT22;20046;50.746;7.072;2023-07-08T14:01:30;36.40;48.00
33717;DHT22;20046;50.746;7.072;2023-07-08T14:03:56;36.50;47.50
33717;DHT22;20046;50.746;7.072;2023-07-08T14:06:24;36.00;47.50
33717;DHT22;20046;50.746;7.072;2023-07-08T14:08:55;36.20;48.10
33717;DHT22;20046;50.746;7.072;2023-07-08T14:11:21;36.30;48.20
33717;DHT22;20046;50.746;7.072;2023-07-08T14:13:47;36.20;47.40
33717;DHT22;20046;50.746;7.072;2023-07-08T14:16:33;36.10;47.90
33717;DHT22;20046;50.746;7.072;2023-07-08T14:19:01;36.40;48.60
33717;DHT22;20046;50.746;7.072;2023-07-08T14:21:32;36.30;47.80
33717;DHT22;20046;50.746;7.072;2023-07-08T14:23:58;36.50;49.10
33717;DHT22;20046;50.746;7.072;2023-07-08T14:26:24;36.70;47.90
33717;DHT22;20046;50.746;7.072;2023-07-08T14:28:50;36.40;47.80
33717;DHT22;20046;50.746;7.072;2023-07-08T14:31:20;36.50;48.90
33717;DHT22;20046;50.746;7.072;2023-07-08T14:33:46;36.40;48.10
33717;DHT22;20046;50.746;7.072;2023-07-08T14:36:12;36.20;48.10
33717;DHT22;20046;50.746;7.072;2023-07-08T14:38:39;36.30;48.50
33717;DHT22;20046;50.746;7.072;2023-07-08T14:41:05;36.40;49.00
33717;DHT22;20046;50.746;7.072;2023-07-08T14:43:32;36.40;49.10
33717;DHT22;20046;50.746;7.072;2023-07-08T14:46:01;36.50;48.40
33717;DHT22;20046;50.746;7.072;2023-07-08T14:48:28;36.50;48.80
33717;DHT22;20046;50.746;7.072;2023-07-08T14:50:54;36.60;49.30
33717;DHT22;20046;50.746;7.072;2023-07-08T14:53:20;36.60;48.70
33717;DHT22;20046;50.746;7.072;2023-07-08T14:55:48;36.30;48.30
33717;DHT22;20046;50.746;7.072;2023-07-08T14:58:33;36.20;48.80
33717;DHT22;20046;50.746;7.072;2023-07-08T15:01:01;36.10;49.30
33717;DHT22;20046;50.746;7.072;2023-07-08T15:03:33;36.20;50.10
33717;DHT22;20046;50.746;7.072;2023-07-08T15:05:58;36.30;48.70
33717;DHT22;20046;50.746;7.072;2023-07-08T15:08:24;36.30;49.10
33717;DHT22;20046;50.746;7.072;2023-07-08T15:10:51;35.80;49.50
33717;DHT22;20046;50.746;7.072;2023-07-08T15:13:20;35.30;50.00
33717;DHT22;20046;50.746;7.072;2023-07-08T15:15:46;34.90;50.90
33717;DHT22;20046;50.746;7.072;2023-07-08T15:18:15;34.70;51.20
33717;DHT22;20046;50.746;7.072;2023-07-08T15:20:41;34.50;51.40
33717;DHT22;20046;50.746;7.072;2023-07-08T15:23:08;34.30;52.00
33717;DHT22;20046;50.746;7.072;2023-07-08T15:25:36;34.30;52.40
33717;DHT22;20046;50.746;7.072;2023-07-08T15:28:03;34.20;51.70
33717;DHT22;20046;50.746;7.072;2023-07-08T15:30:29;34.10;52.20
33717;DHT22;20046;50.746;7.072;2023-07-08T15:32:56;33.90;52.30
33717;DHT22;20046;50.746;7.072;2023-07-08T15:37:50;33.90;52.40
33717;DHT22;20046;50.746;7.072;2023-07-08T15:40:18;33.90;52.20
33717;DHT22;20046;50.746;7.072;2023-07-08T15:42:50;33.90;52.20
33717;DHT22;20046;50.746;7.072;2023-07-08T15:45:22;34.10;52.50
33717;DHT22;20046;50.746;7.072;2023-07-08T15:47:48;34.40;51.40
33717;DHT22;20046;50.746;7.072;2023-07-08T15:50:16;34.70;51.40
33717;DHT22;20046;50.746;7.072;2023-07-08T15:52:42;34.90;51.50
33717;DHT22;20046;50.746;7.072;2023-07-08T15:55:09;34.90;51.10
33717;DHT22;20046;50.746;7.072;2023-07-08T15:57:48;34.80;51.30
33717;DHT22;20046;50.746;7.072;2023-07-08T16:00:18;34.60;50.90
33717;DHT22;20046;50.746;7.072;2023-07-08T16:02:51;34.50;52.50
33717;DHT22;20046;50.746;7.072;2023-07-08T16:05:18;34.30;51.40
33717;DHT22;20046;50.746;7.072;2023-07-08T16:07:49;34.10;52.10
33717;DHT22;20046;50.746;7.072;2023-07-08T16:10:15;34.20;53.10
33717;DHT22;20046;50.746;7.072;2023-07-08T16:12:42;34.30;52.70
33717;DHT22;20046;50.746;7.072;2023-07-08T16:15:27;34.20;52.40
33717;DHT22;20046;50.746;7.072;2023-07-08T16:17:53;34.00;52.90
33717;DHT22;20046;50.746;7.072;2023-07-08T16:20:22;34.00;53.70
33717;DHT22;20046;50.746;7.072;2023-07-08T16:22:48;33.80;53.20
33717;DHT22;20046;50.746;7.072;2023-07-08T16:25:18;33.70;53.40
33717;DHT22;20046;50.746;7.072;2023-07-08T16:27:47;33.60;53.50
33717;DHT22;20046;50.746;7.072;2023-07-08T16:30:15;33.50;53.70
33717;DHT22;20046;50.746;7.072;2023-07-08T16:32:42;33.40;53.30
33717;DHT22;20046;50.746;7.072;2023-07-08T16:35:10;33.20;53.40